52.0°F
Current conditions from King Hill
Updated every 5 minutes
 
  Tuesday September 23, 2014

Station Historical Data
Daily Summary for April 22, 2012 Units:  Both    English   Metric
« Previous Day
Next Day »
Daily Weekly Monthly Yearly Custom
  High: Low: Average:
Temperature: 39.4 °F /  4.1 °C 31.9 °F /  -0.1 °C 35.3 °F /  1.8 °C
Dew Point: 35.7 °F /  2.1 °C 30.3 °F /  -0.9 °C 32.9 °F /  0.5 °C
Humidity: 100% 82% 91%
Wind Speed: 6.0mph /  9.7km/h - 2.2mph /  3.5km/h
Wind Gust: 18.0mph /  29km/h - -
Wind- - ENE
Pressure: 29.94 in /  1013.8 hPa 29.77 in /  1008 hPa -
Precipitation: 0.35 in /  8.9 mm    
Historical Graphs
 
 
Tabular Data for April 22, 2012
Time Temperature Dew Point Pressure Wind Wind Speed Wind Gust Humidity Daily Rainfall
00:04 35.9 °F /  2.2 °C 34.1 °F /  1.2 °C 29.84in /  1010.4hPa Calm   6.0mph /  9.7km/h 93% 0.00in /  0mm
00:09 35.8 °F /  2.1 °C 34.0 °F /  1.1 °C 29.84in /  1010.4hPa Calm   6.0mph /  9.7km/h 93% 0.00in /  0mm
00:14 35.6 °F /  2 °C 33.8 °F /  1 °C 29.84in /  1010.4hPa NNE 1.0mph /  1.6km/h 6.0mph /  9.7km/h 93% 0.01in /  0.3mm
00:19 35.5 °F /  1.9 °C 33.7 °F /  0.9 °C 29.84in /  1010.4hPa Calm   6.0mph /  9.7km/h 93% 0.01in /  0.3mm
00:24 35.5 °F /  1.9 °C 33.7 °F /  0.9 °C 29.85in /  1010.7hPa Calm   3.0mph /  4.8km/h 93% 0.01in /  0.3mm
00:29 35.4 °F /  1.9 °C 33.6 °F /  0.9 °C 29.84in /  1010.4hPa Calm   3.0mph /  4.8km/h 93% 0.02in /  0.5mm
00:34 35.4 °F /  1.9 °C 33.6 °F /  0.9 °C 29.85in /  1010.7hPa Calm   4.0mph /  6.4km/h 93% 0.02in /  0.5mm
00:44 35.3 °F /  1.8 °C 33.5 °F /  0.8 °C 29.85in /  1010.7hPa North 1.0mph /  1.6km/h 6.0mph /  9.7km/h 93% 0.03in /  0.8mm
00:49 35.2 °F /  1.8 °C 33.4 °F /  0.8 °C 29.84in /  1010.4hPa Calm   6.0mph /  9.7km/h 93% 0.04in /  1mm
00:54 35.2 °F /  1.8 °C 33.4 °F /  0.8 °C 29.84in /  1010.4hPa Calm   6.0mph /  9.7km/h 93% 0.04in /  1mm
00:59 35.2 °F /  1.8 °C 33.4 °F /  0.8 °C 29.85in /  1010.7hPa Calm   4.0mph /  6.4km/h 93% 0.06in /  1.5mm
01:04 35.1 °F /  1.7 °C 33.3 °F /  0.7 °C 29.84in /  1010.4hPa Calm   4.0mph /  6.4km/h 93% 0.06in /  1.5mm
01:09 35.1 °F /  1.7 °C 33.3 °F /  0.7 °C 29.84in /  1010.4hPa NNE 1.0mph /  1.6km/h 3.0mph /  4.8km/h 93% 0.07in /  1.8mm
01:14 35.1 °F /  1.7 °C 33.3 °F /  0.7 °C 29.84in /  1010.4hPa Calm   3.0mph /  4.8km/h 93% 0.07in /  1.8mm
01:19 35.1 °F /  1.7 °C 33.3 °F /  0.7 °C 29.84in /  1010.4hPa NNE 1.0mph /  1.6km/h 3.0mph /  4.8km/h 93% 0.08in /  2mm
01:24 35.0 °F /  1.7 °C 33.2 °F /  0.7 °C 29.84in /  1010.4hPa Calm   4.0mph /  6.4km/h 93% 0.08in /  2mm
01:29 34.9 °F /  1.6 °C 33.1 °F /  0.6 °C 29.84in /  1010.4hPa Calm   4.0mph /  6.4km/h 93% 0.09in /  2.3mm
01:34 34.7 °F /  1.5 °C 32.9 °F /  0.5 °C 29.84in /  1010.4hPa Calm   7.0mph /  11.3km/h 93% 0.10in /  2.5mm
01:39 34.6 °F /  1.4 °C 32.8 °F /  0.4 °C 29.84in /  1010.4hPa Calm   7.0mph /  11.3km/h 93% 0.10in /  2.5mm
01:44 34.4 °F /  1.3 °C 32.6 °F /  0.3 °C 29.84in /  1010.4hPa Calm   4.0mph /  6.4km/h 93% 0.11in /  2.8mm
01:49 34.4 °F /  1.3 °C 32.6 °F /  0.3 °C 29.84in /  1010.4hPa NNE 1.0mph /  1.6km/h 3.0mph /  4.8km/h 93% 0.12in /  3mm
01:54 34.4 °F /  1.3 °C 32.6 °F /  0.3 °C 29.83in /  1010hPa Calm   4.0mph /  6.4km/h 93% 0.12in /  3mm
01:59 34.4 °F /  1.3 °C 32.6 °F /  0.3 °C 29.83in /  1010hPa Calm   4.0mph /  6.4km/h 93% 0.12in /  3mm
02:04 34.3 °F /  1.3 °C 32.5 °F /  0.3 °C 29.83in /  1010hPa Calm   3.0mph /  4.8km/h 93% 0.13in /  3.3mm
02:09 34.2 °F /  1.2 °C 32.4 °F /  0.2 °C 29.83in /  1010hPa Calm   2.0mph /  3.2km/h 93% 0.13in /  3.3mm
02:14 34.1 °F /  1.2 °C 32.3 °F /  0.2 °C 29.83in /  1010hPa Calm   2.0mph /  3.2km/h 93% 0.14in /  3.6mm
02:19 34.0 °F /  1.1 °C 32.2 °F /  0.1 °C 29.83in /  1010hPa Calm   2.0mph /  3.2km/h 93% 0.14in /  3.6mm
02:24 33.9 °F /  1.1 °C 32.1 °F /  0.1 °C 29.83in /  1010hPa NNE 1.0mph /  1.6km/h 5.0mph /  8km/h 93% 0.14in /  3.6mm
02:29 33.9 °F /  1.1 °C 32.1 °F /  0.1 °C 29.83in /  1010hPa Calm   5.0mph /  8km/h 93% 0.14in /  3.6mm
02:34 33.8 °F /  1 °C 32.0 °F /  0 °C 29.83in /  1010hPa Calm   4.0mph /  6.4km/h 93% 0.14in /  3.6mm
02:39 33.8 °F /  1 °C 32.0 °F /  0 °C 29.83in /  1010hPa NNW 1.0mph /  1.6km/h 6.0mph /  9.7km/h 93% 0.14in /  3.6mm
02:44 33.7 °F /  0.9 °C 31.9 °F /  -0.1 °C 29.83in /  1010hPa NW 1.0mph /  1.6km/h 6.0mph /  9.7km/h 93% 0.14in /  3.6mm
02:49 33.7 °F /  0.9 °C 31.9 °F /  -0.1 °C 29.83in /  1010hPa NNW 1.0mph /  1.6km/h 6.0mph /  9.7km/h 93% 0.14in /  3.6mm
02:54 33.6 °F /  0.9 °C 31.8 °F /  -0.1 °C 29.84in /  1010.4hPa NW 2.0mph /  3.2km/h 6.0mph /  9.7km/h 93% 0.14in /  3.6mm
02:59 33.5 °F /  0.8 °C 31.7 °F /  -0.2 °C 29.83in /  1010hPa NW 4.0mph /  6.4km/h 6.0mph /  9.7km/h 93% 0.14in /  3.6mm
03:04 33.2 °F /  0.7 °C 31.4 °F /  -0.3 °C 29.84in /  1010.4hPa NW 4.0mph /  6.4km/h 8.0mph /  12.9km/h 93% 0.14in /  3.6mm
03:09 32.9 °F /  0.5 °C 31.1 °F /  -0.5 °C 29.85in /  1010.7hPa NW 2.0mph /  3.2km/h 8.0mph /  12.9km/h 93% 0.14in /  3.6mm
03:14 32.6 °F /  0.3 °C 30.8 °F /  -0.7 °C 29.84in /  1010.4hPa NW 1.0mph /  1.6km/h 8.0mph /  12.9km/h 93% 0.14in /  3.6mm
03:19 32.5 °F /  0.3 °C 30.7 °F /  -0.7 °C 29.84in /  1010.4hPa Calm   8.0mph /  12.9km/h 93% 0.14in /  3.6mm
03:24 32.4 °F /  0.2 °C 30.6 °F /  -0.8 °C 29.84in /  1010.4hPa Calm   5.0mph /  8km/h 93% 0.14in /  3.6mm
03:29 32.4 °F /  0.2 °C 30.6 °F /  -0.8 °C 29.84in /  1010.4hPa Calm   5.0mph /  8km/h 93% 0.14in /  3.6mm
03:34 32.4 °F /  0.2 °C 30.6 °F /  -0.8 °C 29.84in /  1010.4hPa Calm   2.0mph /  3.2km/h 93% 0.14in /  3.6mm
03:39 32.3 °F /  0.2 °C 30.5 °F /  -0.8 °C 29.84in /  1010.4hPa Calm   2.0mph /  3.2km/h 93% 0.14in /  3.6mm
03:49 32.3 °F /  0.2 °C 30.5 °F /  -0.8 °C 29.84in /  1010.4hPa Calm   3.0mph /  4.8km/h 93% 0.14in /  3.6mm
03:54 32.3 °F /  0.2 °C 30.5 °F /  -0.8 °C 29.85in /  1010.7hPa NNE 1.0mph /  1.6km/h 4.0mph /  6.4km/h 93% 0.14in /  3.6mm
03:59 32.2 °F /  0.1 °C 30.4 °F /  -0.9 °C 29.84in /  1010.4hPa Calm   5.0mph /  8km/h 93% 0.14in /  3.6mm
04:04 32.2 °F /  0.1 °C 30.4 °F /  -0.9 °C 29.84in /  1010.4hPa Calm   7.0mph /  11.3km/h 93% 0.14in /  3.6mm
04:09 32.2 °F /  0.1 °C 30.4 °F /  -0.9 °C 29.84in /  1010.4hPa Calm   7.0mph /  11.3km/h 93% 0.14in /  3.6mm
04:14 32.2 °F /  0.1 °C 30.4 °F /  -0.9 °C 29.84in /  1010.4hPa Calm   4.0mph /  6.4km/h 93% 0.14in /  3.6mm
04:19 32.1 °F /  0.1 °C 30.3 °F /  -0.9 °C 29.84in /  1010.4hPa Calm   3.0mph /  4.8km/h 93% 0.14in /  3.6mm
04:29 32.2 °F /  0.1 °C 30.7 °F /  -0.7 °C 29.84in /  1010.4hPa Calm   4.0mph /  6.4km/h 94% 0.14in /  3.6mm
04:34 32.2 °F /  0.1 °C 30.7 °F /  -0.7 °C 29.84in /  1010.4hPa Calm   6.0mph /  9.7km/h 94% 0.14in /  3.6mm
04:39 32.1 °F /  0.1 °C 30.6 °F /  -0.8 °C 29.84in /  1010.4hPa Calm   6.0mph /  9.7km/h 94% 0.14in /  3.6mm
04:44 32.2 °F /  0.1 °C 30.7 °F /  -0.7 °C 29.85in /  1010.7hPa Calm     94% 0.14in /  3.6mm
04:49 32.1 °F /  0.1 °C 30.6 °F /  -0.8 °C 29.85in /  1010.7hPa Calm   6.0mph /  9.7km/h 94% 0.14in /  3.6mm
04:54 32.1 °F /  0.1 °C 30.6 °F /  -0.8 °C 29.85in /  1010.7hPa Calm   6.0mph /  9.7km/h 94% 0.14in /  3.6mm
05:00 32.1 °F /  0.1 °C 30.6 °F /  -0.8 °C 29.85in /  1010.7hPa North 1.0mph /  1.6km/h 5.0mph /  8km/h 94% 0.14in /  3.6mm
05:09 32.1 °F /  0.1 °C 30.6 °F /  -0.8 °C 29.85in /  1010.7hPa Calm   5.0mph /  8km/h 94% 0.14in /  3.6mm
05:14 32.0 °F /  0 °C 30.5 °F /  -0.8 °C 29.85in /  1010.7hPa Calm   5.0mph /  8km/h 94% 0.14in /  3.6mm
05:19 32.0 °F /  0 °C 30.5 °F /  -0.8 °C 29.85in /  1010.7hPa Calm   6.0mph /  9.7km/h 94% 0.14in /  3.6mm
05:24 32.0 °F /  0 °C 30.5 °F /  -0.8 °C 29.85in /  1010.7hPa NNE 1.0mph /  1.6km/h 6.0mph /  9.7km/h 94% 0.14in /  3.6mm
05:29 32.1 °F /  0.1 °C 30.6 °F /  -0.8 °C 29.85in /  1010.7hPa NNE 1.0mph /  1.6km/h 7.0mph /  11.3km/h 94% 0.14in /  3.6mm
05:34 32.0 °F /  0 °C 30.5 °F /  -0.8 °C 29.85in /  1010.7hPa NNE 1.0mph /  1.6km/h 7.0mph /  11.3km/h 94% 0.14in /  3.6mm
05:39 32.0 °F /  0 °C 30.5 °F /  -0.8 °C 29.84in /  1010.4hPa NNE 3.0mph /  4.8km/h 7.0mph /  11.3km/h 94% 0.14in /  3.6mm
05:44 31.9 °F /  -0.1 °C 30.4 °F /  -0.9 °C 29.85in /  1010.7hPa Calm   7.0mph /  11.3km/h 94% 0.14in /  3.6mm
05:49 31.9 °F /  -0.1 °C 30.4 °F /  -0.9 °C 29.85in /  1010.7hPa Calm   6.0mph /  9.7km/h 94% 0.14in /  3.6mm
05:54 31.9 °F /  -0.1 °C 30.4 °F /  -0.9 °C 29.85in /  1010.7hPa NNW 1.0mph /  1.6km/h 8.0mph /  12.9km/h 94% 0.14in /  3.6mm
05:59 31.9 °F /  -0.1 °C 30.4 °F /  -0.9 °C 29.85in /  1010.7hPa NNE 1.0mph /  1.6km/h 9.0mph /  14.5km/h 94% 0.14in /  3.6mm
06:05 31.9 °F /  -0.1 °C 30.4 °F /  -0.9 °C 29.85in /  1010.7hPa Calm   9.0mph /  14.5km/h 94% 0.14in /  3.6mm
06:14 32.0 °F /  0 °C 30.5 °F /  -0.8 °C 29.86in /  1011.1hPa North 2.0mph /  3.2km/h 10.0mph /  16.1km/h 94% 0.14in /  3.6mm
06:19 32.0 °F /  0 °C 30.5 °F /  -0.8 °C 29.86in /  1011.1hPa Calm   10.0mph /  16.1km/h 94% 0.14in /  3.6mm
06:25 31.9 °F /  -0.1 °C 30.4 °F /  -0.9 °C 29.86in /  1011.1hPa Calm   4.0mph /  6.4km/h 94% 0.14in /  3.6mm
06:34 32.0 °F /  0 °C 30.5 °F /  -0.8 °C 29.86in /  1011.1hPa North 1.0mph /  1.6km/h 9.0mph /  14.5km/h 94% 0.14in /  3.6mm
06:39 32.0 °F /  0 °C 30.5 °F /  -0.8 °C 29.86in /  1011.1hPa NNE 2.0mph /  3.2km/h 9.0mph /  14.5km/h 94% 0.14in /  3.6mm
06:44 31.9 °F /  -0.1 °C 30.4 °F /  -0.9 °C 29.86in /  1011.1hPa NNE 4.0mph /  6.4km/h 9.0mph /  14.5km/h 94% 0.14in /  3.6mm
06:49 31.9 °F /  -0.1 °C 30.4 °F /  -0.9 °C 29.87in /  1011.4hPa North 3.0mph /  4.8km/h 9.0mph /  14.5km/h 94% 0.14in /  3.6mm
06:54 31.9 °F /  -0.1 °C 30.4 °F /  -0.9 °C 29.87in /  1011.4hPa NNE 1.0mph /  1.6km/h 9.0mph /  14.5km/h 94% 0.14in /  3.6mm
06:59 32.0 °F /  0 °C 30.5 °F /  -0.8 °C 29.87in /  1011.4hPa North 1.0mph /  1.6km/h 9.0mph /  14.5km/h 94% 0.14in /  3.6mm
07:04 32.0 °F /  0 °C 30.5 °F /  -0.8 °C 29.87in /  1011.4hPa Calm   9.0mph /  14.5km/h 94% 0.14in /  3.6mm
07:09 32.0 °F /  0 °C 32.0 °F /  0 °C 29.87in /  1011.4hPa NNE 1.0mph /  1.6km/h 8.0mph /  12.9km/h 100% 0.14in /  3.6mm
07:14 32.0 °F /  0 °C 32.0 °F /  0 °C 29.87in /  1011.4hPa NNE 1.0mph /  1.6km/h 8.0mph /  12.9km/h 100% 0.14in /  3.6mm
07:19 32.0 °F /  0 °C 30.5 °F /  -0.8 °C 29.87in /  1011.4hPa NNE 1.0mph /  1.6km/h 8.0mph /  12.9km/h 94% 0.14in /  3.6mm
07:24 32.0 °F /  0 °C 30.5 °F /  -0.8 °C 29.87in /  1011.4hPa Calm   8.0mph /  12.9km/h 94% 0.14in /  3.6mm
07:29 32.1 °F /  0.1 °C 30.6 °F /  -0.8 °C 29.87in /  1011.4hPa ENE 1.0mph /  1.6km/h 5.0mph /  8km/h 94% 0.14in /  3.6mm
07:34 32.1 °F /  0.1 °C 30.6 °F /  -0.8 °C 29.88in /  1011.7hPa North 2.0mph /  3.2km/h 9.0mph /  14.5km/h 94% 0.14in /  3.6mm
07:39 32.1 °F /  0.1 °C 30.6 °F /  -0.8 °C 29.88in /  1011.7hPa Calm   9.0mph /  14.5km/h 94% 0.14in /  3.6mm
07:44 32.1 °F /  0.1 °C 30.6 °F /  -0.8 °C 29.89in /  1012.1hPa Calm   7.0mph /  11.3km/h 94% 0.14in /  3.6mm
07:49 32.1 °F /  0.1 °C 30.6 °F /  -0.8 °C 29.90in /  1012.4hPa North 2.0mph /  3.2km/h 7.0mph /  11.3km/h 94% 0.14in /  3.6mm
07:54 32.1 °F /  0.1 °C 30.6 °F /  -0.8 °C 29.90in /  1012.4hPa Calm   6.0mph /  9.7km/h 94% 0.14in /  3.6mm
07:59 32.1 °F /  0.1 °C 30.6 °F /  -0.8 °C 29.90in /  1012.4hPa Calm   6.0mph /  9.7km/h 94% 0.14in /  3.6mm
08:04 32.2 °F /  0.1 °C 30.7 °F /  -0.7 °C 29.90in /  1012.4hPa North 3.0mph /  4.8km/h 8.0mph /  12.9km/h 94% 0.14in /  3.6mm
08:09 32.2 °F /  0.1 °C 30.7 °F /  -0.7 °C 29.90in /  1012.4hPa Calm   8.0mph /  12.9km/h 94% 0.14in /  3.6mm
08:14 32.3 °F /  0.2 °C 30.8 °F /  -0.7 °C 29.91in /  1012.8hPa Calm   7.0mph /  11.3km/h 94% 0.14in /  3.6mm
08:19 32.4 °F /  0.2 °C 30.9 °F /  -0.6 °C 29.91in /  1012.8hPa NNE 1.0mph /  1.6km/h 6.0mph /  9.7km/h 94% 0.14in /  3.6mm
08:24 32.4 °F /  0.2 °C 30.9 °F /  -0.6 °C 29.92in /  1013.1hPa NNE 1.0mph /  1.6km/h 6.0mph /  9.7km/h 94% 0.14in /  3.6mm
08:29 32.5 °F /  0.3 °C 31.0 °F /  -0.6 °C 29.91in /  1012.8hPa Calm   6.0mph /  9.7km/h 94% 0.14in /  3.6mm
08:34 32.6 °F /  0.3 °C 31.1 °F /  -0.5 °C 29.92in /  1013.1hPa Calm   5.0mph /  8km/h 94% 0.14in /  3.6mm
08:44 32.7 °F /  0.4 °C 31.2 °F /  -0.4 °C 29.92in /  1013.1hPa NNE 1.0mph /  1.6km/h 5.0mph /  8km/h 94% 0.14in /  3.6mm
08:49 32.6 °F /  0.3 °C 31.1 °F /  -0.5 °C 29.92in /  1013.1hPa NNE 1.0mph /  1.6km/h 8.0mph /  12.9km/h 94% 0.14in /  3.6mm
08:54 32.7 °F /  0.4 °C 31.2 °F /  -0.4 °C 29.92in /  1013.1hPa NNE 2.0mph /  3.2km/h 8.0mph /  12.9km/h 94% 0.14in /  3.6mm
08:59 32.8 °F /  0.4 °C 31.3 °F /  -0.4 °C 29.92in /  1013.1hPa Calm   7.0mph /  11.3km/h 94% 0.14in /  3.6mm
09:04 32.8 °F /  0.4 °C 31.3 °F /  -0.4 °C 29.92in /  1013.1hPa NNE 1.0mph /  1.6km/h 8.0mph /  12.9km/h 94% 0.14in /  3.6mm
09:09 32.8 °F /  0.4 °C 31.3 °F /  -0.4 °C 29.93in /  1013.4hPa NNE 1.0mph /  1.6km/h 8.0mph /  12.9km/h 94% 0.14in /  3.6mm
09:14 32.9 °F /  0.5 °C 31.4 °F /  -0.3 °C 29.93in /  1013.4hPa North 1.0mph /  1.6km/h 6.0mph /  9.7km/h 94% 0.14in /  3.6mm
09:19 33.1 °F /  0.6 °C 31.6 °F /  -0.2 °C 29.92in /  1013.1hPa North 2.0mph /  3.2km/h 7.0mph /  11.3km/h 94% 0.14in /  3.6mm
09:24 33.2 °F /  0.7 °C 31.7 °F /  -0.2 °C 29.92in /  1013.1hPa NNE 3.0mph /  4.8km/h 7.0mph /  11.3km/h 94% 0.14in /  3.6mm
09:29 33.3 °F /  0.7 °C 31.8 °F /  -0.1 °C 29.92in /  1013.1hPa NNE 3.0mph /  4.8km/h 10.0mph /  16.1km/h 94% 0.14in /  3.6mm
09:34 33.3 °F /  0.7 °C 31.8 °F /  -0.1 °C 29.92in /  1013.1hPa North 2.0mph /  3.2km/h 10.0mph /  16.1km/h 94% 0.14in /  3.6mm
09:39 33.6 °F /  0.9 °C 32.1 °F /  0.1 °C 29.92in /  1013.1hPa North 1.0mph /  1.6km/h 9.0mph /  14.5km/h 94% 0.14in /  3.6mm
09:49 33.6 °F /  0.9 °C 32.1 °F /  0.1 °C 29.92in /  1013.1hPa NNE 2.0mph /  3.2km/h 8.0mph /  12.9km/h 94% 0.14in /  3.6mm
09:54 33.5 °F /  0.8 °C 32.0 °F /  0 °C 29.92in /  1013.1hPa NE 2.0mph /  3.2km/h 12.0mph /  19.3km/h 94% 0.14in /  3.6mm
09:59 33.4 °F /  0.8 °C 31.9 °F /  -0.1 °C 29.92in /  1013.1hPa NE 4.0mph /  6.4km/h 15.0mph /  24.1km/h 94% 0.14in /  3.6mm
10:04 33.5 °F /  0.8 °C 32.0 °F /  0 °C 29.93in /  1013.4hPa North 1.0mph /  1.6km/h 15.0mph /  24.1km/h 94% 0.14in /  3.6mm
10:09 33.8 °F /  1 °C 32.3 °F /  0.2 °C 29.93in /  1013.4hPa NNE 1.0mph /  1.6km/h 6.0mph /  9.7km/h 94% 0.14in /  3.6mm
10:15 34.0 °F /  1.1 °C 32.5 °F /  0.3 °C 29.94in /  1013.8hPa North 2.0mph /  3.2km/h 8.0mph /  12.9km/h 94% 0.14in /  3.6mm
10:24 33.9 °F /  1.1 °C 32.4 °F /  0.2 °C 29.94in /  1013.8hPa North 1.0mph /  1.6km/h 7.0mph /  11.3km/h 94% 0.14in /  3.6mm
10:29 34.2 °F /  1.2 °C 32.7 °F /  0.4 °C 29.93in /  1013.4hPa NNE 1.0mph /  1.6km/h 8.0mph /  12.9km/h 94% 0.14in /  3.6mm
10:34 34.4 °F /  1.3 °C 32.9 °F /  0.5 °C 29.93in /  1013.4hPa North 3.0mph /  4.8km/h 9.0mph /  14.5km/h 94% 0.14in /  3.6mm
10:39 34.4 °F /  1.3 °C 32.9 °F /  0.5 °C 29.93in /  1013.4hPa North 3.0mph /  4.8km/h 9.0mph /  14.5km/h 94% 0.14in /  3.6mm
10:44 34.4 °F /  1.3 °C 32.9 °F /  0.5 °C 29.93in /  1013.4hPa North 1.0mph /  1.6km/h 7.0mph /  11.3km/h 94% 0.14in /  3.6mm
10:49 34.4 °F /  1.3 °C 32.9 °F /  0.5 °C 29.93in /  1013.4hPa NNE 1.0mph /  1.6km/h 7.0mph /  11.3km/h 94% 0.14in /  3.6mm
10:54 34.9 °F /  1.6 °C 33.4 °F /  0.8 °C 29.93in /  1013.4hPa NNE 1.0mph /  1.6km/h 7.0mph /  11.3km/h 94% 0.14in /  3.6mm
11:00 35.1 °F /  1.7 °C 33.5 °F /  0.8 °C 29.93in /  1013.4hPa NE 2.0mph /  3.2km/h 10.0mph /  16.1km/h 94% 0.14in /  3.6mm
11:09 35.3 °F /  1.8 °C 33.7 °F /  0.9 °C 29.93in /  1013.4hPa North 2.0mph /  3.2km/h 8.0mph /  12.9km/h 94% 0.14in /  3.6mm
11:14 35.3 °F /  1.8 °C 33.7 °F /  0.9 °C 29.93in /  1013.4hPa NNE 3.0mph /  4.8km/h 8.0mph /  12.9km/h 94% 0.14in /  3.6mm
11:24 35.5 °F /  1.9 °C 33.9 °F /  1.1 °C 29.93in /  1013.4hPa North 2.0mph /  3.2km/h 8.0mph /  12.9km/h 94% 0.14in /  3.6mm
11:29 35.6 °F /  2 °C 34.0 °F /  1.1 °C 29.93in /  1013.4hPa NNE 4.0mph /  6.4km/h 8.0mph /  12.9km/h 94% 0.14in /  3.6mm
11:34 35.2 °F /  1.8 °C 33.6 °F /  0.9 °C 29.93in /  1013.4hPa NNE 2.0mph /  3.2km/h 8.0mph /  12.9km/h 94% 0.15in /  3.8mm
11:39 35.3 °F /  1.8 °C 33.7 °F /  0.9 °C 29.93in /  1013.4hPa Calm   8.0mph /  12.9km/h 94% 0.15in /  3.8mm
11:45 35.6 °F /  2 °C 34.0 °F /  1.1 °C 29.93in /  1013.4hPa NE 1.0mph /  1.6km/h 8.0mph /  12.9km/h 94% 0.16in /  4.1mm
11:50 35.6 °F /  2 °C 34.0 °F /  1.1 °C 29.93in /  1013.4hPa North 3.0mph /  4.8km/h 8.0mph /  12.9km/h 94% 0.16in /  4.1mm
11:59 36.0 °F /  2.2 °C 34.4 °F /  1.3 °C 29.92in /  1013.1hPa North 1.0mph /  1.6km/h 10.0mph /  16.1km/h 94% 0.16in /  4.1mm
12:04 36.3 °F /  2.4 °C 34.7 °F /  1.5 °C 29.93in /  1013.4hPa NNE 1.0mph /  1.6km/h 9.0mph /  14.5km/h 94% 0.16in /  4.1mm
12:09 36.4 °F /  2.4 °C 34.8 °F /  1.6 °C 29.92in /  1013.1hPa North 1.0mph /  1.6km/h 6.0mph /  9.7km/h 94% 0.17in /  4.3mm
12:14 36.4 °F /  2.4 °C 34.8 °F /  1.6 °C 29.93in /  1013.4hPa North 2.0mph /  3.2km/h 7.0mph /  11.3km/h 94% 0.17in /  4.3mm
12:19 36.6 °F /  2.6 °C 35.0 °F /  1.7 °C 29.92in /  1013.1hPa Calm   7.0mph /  11.3km/h 94% 0.17in /  4.3mm
12:24 36.8 °F /  2.7 °C 35.2 °F /  1.8 °C 29.92in /  1013.1hPa North 1.0mph /  1.6km/h 6.0mph /  9.7km/h 94% 0.17in /  4.3mm
12:29 36.8 °F /  2.7 °C 35.2 °F /  1.8 °C 29.93in /  1013.4hPa Calm   6.0mph /  9.7km/h 94% 0.17in /  4.3mm
12:34 37.0 °F /  2.8 °C 35.4 °F /  1.9 °C 29.93in /  1013.4hPa NNW 1.0mph /  1.6km/h 6.0mph /  9.7km/h 94% 0.17in /  4.3mm
12:39 37.2 °F /  2.9 °C 35.6 °F /  2 °C 29.93in /  1013.4hPa NNE 1.0mph /  1.6km/h 6.0mph /  9.7km/h 94% 0.17in /  4.3mm
12:45 37.1 °F /  2.8 °C 35.5 °F /  1.9 °C 29.93in /  1013.4hPa NNE 1.0mph /  1.6km/h 6.0mph /  9.7km/h 94% 0.18in /  4.6mm
12:54 37.1 °F /  2.8 °C 35.3 °F /  1.8 °C 29.93in /  1013.4hPa North 1.0mph /  1.6km/h 6.0mph /  9.7km/h 93% 0.18in /  4.6mm
12:59 37.2 °F /  2.9 °C 35.4 °F /  1.9 °C 29.93in /  1013.4hPa East 1.0mph /  1.6km/h 6.0mph /  9.7km/h 93% 0.18in /  4.6mm
13:04 37.4 °F /  3 °C 35.6 °F /  2 °C 29.93in /  1013.4hPa North 2.0mph /  3.2km/h 7.0mph /  11.3km/h 93% 0.18in /  4.6mm
13:09 37.4 °F /  3 °C 35.6 °F /  2 °C 29.94in /  1013.8hPa NNE 3.0mph /  4.8km/h 10.0mph /  16.1km/h 93% 0.18in /  4.6mm
13:15 37.4 °F /  3 °C 35.3 °F /  1.8 °C 29.94in /  1013.8hPa Calm   10.0mph /  16.1km/h 92% 0.18in /  4.6mm
13:24 37.6 °F /  3.1 °C 35.2 °F /  1.8 °C 29.94in /  1013.8hPa Calm   5.0mph /  8km/h 91% 0.18in /  4.6mm
13:29 37.6 °F /  3.1 °C 35.2 °F /  1.8 °C 29.94in /  1013.8hPa Calm   6.0mph /  9.7km/h 91% 0.18in /  4.6mm
13:34 37.6 °F /  3.1 °C 34.9 °F /  1.6 °C 29.93in /  1013.4hPa NNE 2.0mph /  3.2km/h 8.0mph /  12.9km/h 90% 0.18in /  4.6mm
13:40 37.8 °F /  3.2 °C 35.1 °F /  1.7 °C 29.94in /  1013.8hPa Calm   8.0mph /  12.9km/h 90% 0.18in /  4.6mm
13:49 37.8 °F /  3.2 °C 35.1 °F /  1.7 °C 29.93in /  1013.4hPa Calm   10.0mph /  16.1km/h 90% 0.18in /  4.6mm
13:59 38.4 °F /  3.6 °C 35.7 °F /  2.1 °C 29.93in /  1013.4hPa North 3.0mph /  4.8km/h 9.0mph /  14.5km/h 90% 0.18in /  4.6mm
14:04 38.4 °F /  3.6 °C 35.4 °F /  1.9 °C 29.93in /  1013.4hPa Calm   9.0mph /  14.5km/h 89% 0.18in /  4.6mm
14:09 38.4 °F /  3.6 °C 35.2 °F /  1.8 °C 29.93in /  1013.4hPa NNE 4.0mph /  6.4km/h 11.0mph /  17.7km/h 88% 0.18in /  4.6mm
14:14 38.3 °F /  3.5 °C 35.1 °F /  1.7 °C 29.94in /  1013.8hPa NE 4.0mph /  6.4km/h 11.0mph /  17.7km/h 88% 0.18in /  4.6mm
14:19 38.4 °F /  3.6 °C 34.9 °F /  1.6 °C 29.94in /  1013.8hPa NNE 2.0mph /  3.2km/h 10.0mph /  16.1km/h 87% 0.18in /  4.6mm
14:24 38.5 °F /  3.6 °C 35.0 °F /  1.7 °C 29.94in /  1013.8hPa Calm   8.0mph /  12.9km/h 87% 0.18in /  4.6mm
14:29 38.6 °F /  3.7 °C 35.1 °F /  1.7 °C 29.94in /  1013.8hPa NE 4.0mph /  6.4km/h 11.0mph /  17.7km/h 87% 0.18in /  4.6mm
14:34 38.6 °F /  3.7 °C 34.8 °F /  1.6 °C 29.94in /  1013.8hPa NE 1.0mph /  1.6km/h 11.0mph /  17.7km/h 86% 0.18in /  4.6mm
14:39 38.5 °F /  3.6 °C 34.4 °F /  1.3 °C 29.94in /  1013.8hPa NNE 2.0mph /  3.2km/h 9.0mph /  14.5km/h 85% 0.18in /  4.6mm
14:44 38.7 °F /  3.7 °C 34.9 °F /  1.6 °C 29.94in /  1013.8hPa NNE 2.0mph /  3.2km/h 9.0mph /  14.5km/h 86% 0.18in /  4.6mm
14:49 38.8 °F /  3.8 °C 35.0 °F /  1.7 °C 29.94in /  1013.8hPa North 2.0mph /  3.2km/h 9.0mph /  14.5km/h 86% 0.18in /  4.6mm
14:55 38.6 °F /  3.7 °C 34.5 °F /  1.4 °C 29.93in /  1013.4hPa NNE 4.0mph /  6.4km/h 11.0mph /  17.7km/h 85% 0.18in /  4.6mm
15:04 38.8 °F /  3.8 °C 35.0 °F /  1.7 °C 29.93in /  1013.4hPa North 1.0mph /  1.6km/h 9.0mph /  14.5km/h 86% 0.18in /  4.6mm
15:09 38.8 °F /  3.8 °C 34.7 °F /  1.5 °C 29.93in /  1013.4hPa North 4.0mph /  6.4km/h 11.0mph /  17.7km/h 85% 0.18in /  4.6mm
15:14 38.6 °F /  3.7 °C 34.2 °F /  1.2 °C 29.93in /  1013.4hPa NNE 2.0mph /  3.2km/h 12.0mph /  19.3km/h 84% 0.18in /  4.6mm
15:19 38.6 °F /  3.7 °C 34.5 °F /  1.4 °C 29.93in /  1013.4hPa NE 1.0mph /  1.6km/h 12.0mph /  19.3km/h 85% 0.18in /  4.6mm
15:24 38.8 °F /  3.8 °C 34.7 °F /  1.5 °C 29.93in /  1013.4hPa NNE 3.0mph /  4.8km/h 13.0mph /  20.9km/h 85% 0.18in /  4.6mm
15:29 38.8 °F /  3.8 °C 34.7 °F /  1.5 °C 29.93in /  1013.4hPa NE 2.0mph /  3.2km/h 13.0mph /  20.9km/h 85% 0.18in /  4.6mm
15:35 39.0 °F /  3.9 °C 34.9 °F /  1.6 °C 29.92in /  1013.1hPa North 1.0mph /  1.6km/h 8.0mph /  12.9km/h 85% 0.18in /  4.6mm
15:40 39.1 °F /  3.9 °C 35.0 °F /  1.7 °C 29.92in /  1013.1hPa North 1.0mph /  1.6km/h 10.0mph /  16.1km/h 85% 0.18in /  4.6mm
15:49 39.4 °F /  4.1 °C 35.3 °F /  1.8 °C 29.92in /  1013.1hPa North 3.0mph /  4.8km/h 7.0mph /  11.3km/h 85% 0.18in /  4.6mm
15:54 39.3 °F /  4.1 °C 34.9 °F /  1.6 °C 29.92in /  1013.1hPa NNE 2.0mph /  3.2km/h 12.0mph /  19.3km/h 84% 0.18in /  4.6mm
15:59 39.2 °F /  4 °C 34.5 °F /  1.4 °C 29.92in /  1013.1hPa North 4.0mph /  6.4km/h 15.0mph /  24.1km/h 83% 0.18in /  4.6mm
16:04 39.3 °F /  4.1 °C 34.6 °F /  1.4 °C 29.92in /  1013.1hPa NE 1.0mph /  1.6km/h 15.0mph /  24.1km/h 83% 0.18in /  4.6mm
16:09 39.4 °F /  4.1 °C 34.7 °F /  1.5 °C 29.92in /  1013.1hPa North 5.0mph /  8km/h 12.0mph /  19.3km/h 83% 0.18in /  4.6mm
16:14 39.4 °F /  4.1 °C 34.7 °F /  1.5 °C 29.92in /  1013.1hPa NNE 1.0mph /  1.6km/h 12.0mph /  19.3km/h 83% 0.18in /  4.6mm
16:19 39.4 °F /  4.1 °C 34.7 °F /  1.5 °C 29.92in /  1013.1hPa North 2.0mph /  3.2km/h 10.0mph /  16.1km/h 83% 0.18in /  4.6mm
16:24 39.4 °F /  4.1 °C 34.7 °F /  1.5 °C 29.92in /  1013.1hPa NNE 3.0mph /  4.8km/h 10.0mph /  16.1km/h 83% 0.18in /  4.6mm
16:29 39.3 °F /  4.1 °C 34.6 °F /  1.4 °C 29.92in /  1013.1hPa NNE 4.0mph /  6.4km/h 10.0mph /  16.1km/h 83% 0.18in /  4.6mm
16:34 39.2 °F /  4 °C 34.2 °F /  1.2 °C 29.92in /  1013.1hPa North 3.0mph /  4.8km/h 10.0mph /  16.1km/h 82% 0.18in /  4.6mm
16:39 39.0 °F /  3.9 °C 34.0 °F /  1.1 °C 29.92in /  1013.1hPa NNE 4.0mph /  6.4km/h 10.0mph /  16.1km/h 82% 0.18in /  4.6mm
16:49 38.9 °F /  3.8 °C 34.2 °F /  1.2 °C 29.92in /  1013.1hPa North 2.0mph /  3.2km/h 8.0mph /  12.9km/h 83% 0.18in /  4.6mm
16:54 38.8 °F /  3.8 °C 34.1 °F /  1.2 °C 29.91in /  1012.8hPa NNE 4.0mph /  6.4km/h 11.0mph /  17.7km/h 83% 0.18in /  4.6mm
16:59 38.8 °F /  3.8 °C 34.1 °F /  1.2 °C 29.91in /  1012.8hPa NNE 1.0mph /  1.6km/h 11.0mph /  17.7km/h 83% 0.18in /  4.6mm
17:04 38.7 °F /  3.7 °C 34.0 °F /  1.1 °C 29.90in /  1012.4hPa NNE 3.0mph /  4.8km/h 10.0mph /  16.1km/h 83% 0.18in /  4.6mm
17:09 38.7 °F /  3.7 °C 34.0 °F /  1.1 °C 29.90in /  1012.4hPa North 2.0mph /  3.2km/h 10.0mph /  16.1km/h 83% 0.18in /  4.6mm
17:14 38.6 °F /  3.7 °C 33.9 °F /  1.1 °C 29.91in /  1012.8hPa NNE 2.0mph /  3.2km/h 10.0mph /  16.1km/h 83% 0.18in /  4.6mm
17:19 38.6 °F /  3.7 °C 33.9 °F /  1.1 °C 29.90in /  1012.4hPa NE 3.0mph /  4.8km/h 14.0mph /  22.5km/h 83% 0.18in /  4.6mm
17:24 38.5 °F /  3.6 °C 33.8 °F /  1 °C 29.90in /  1012.4hPa North 4.0mph /  6.4km/h 14.0mph /  22.5km/h 83% 0.18in /  4.6mm
17:30 38.4 °F /  3.6 °C 33.7 °F /  0.9 °C 29.90in /  1012.4hPa NNE 5.0mph /  8km/h 16.0mph /  25.7km/h 83% 0.18in /  4.6mm
17:39 38.0 °F /  3.3 °C 33.0 °F /  0.6 °C 29.91in /  1012.8hPa NNE 5.0mph /  8km/h 18.0mph /  29km/h 82% 0.18in /  4.6mm
17:44 37.9 °F /  3.3 °C 33.2 °F /  0.7 °C 29.91in /  1012.8hPa NNE 4.0mph /  6.4km/h 13.0mph /  20.9km/h 83% 0.18in /  4.6mm
17:49 37.9 °F /  3.3 °C 33.2 °F /  0.7 °C 29.91in /  1012.8hPa NNE 5.0mph /  8km/h 13.0mph /  20.9km/h 83% 0.18in /  4.6mm
17:54 37.8 °F /  3.2 °C 33.1 °F /  0.6 °C 29.91in /  1012.8hPa NNE 6.0mph /  9.7km/h 16.0mph /  25.7km/h 83% 0.18in /  4.6mm
18:04 37.6 °F /  3.1 °C 33.2 °F /  0.7 °C 29.91in /  1012.8hPa NNE 5.0mph /  8km/h 16.0mph /  25.7km/h 84% 0.18in /  4.6mm
18:14 37.5 °F /  3.1 °C 33.1 °F /  0.6 °C 29.91in /  1012.8hPa NE 2.0mph /  3.2km/h 12.0mph /  19.3km/h 84% 0.18in /  4.6mm
18:19 37.5 °F /  3.1 °C 33.1 °F /  0.6 °C 29.91in /  1012.8hPa NE 3.0mph /  4.8km/h 10.0mph /  16.1km/h 84% 0.18in /  4.6mm
18:24 37.4 °F /  3 °C 33.0 °F /  0.6 °C 29.91in /  1012.8hPa NNE 3.0mph /  4.8km/h 13.0mph /  20.9km/h 84% 0.18in /  4.6mm
18:29 37.3 °F /  2.9 °C 32.9 °F /  0.5 °C 29.91in /  1012.8hPa North 1.0mph /  1.6km/h 13.0mph /  20.9km/h 84% 0.18in /  4.6mm
18:34 37.3 °F /  2.9 °C 32.9 °F /  0.5 °C 29.90in /  1012.4hPa NE 3.0mph /  4.8km/h 13.0mph /  20.9km/h 84% 0.18in /  4.6mm
18:39 37.2 °F /  2.9 °C 32.8 °F /  0.4 °C 29.91in /  1012.8hPa NNE 4.0mph /  6.4km/h 13.0mph /  20.9km/h 84% 0.18in /  4.6mm
18:44 37.1 °F /  2.8 °C 32.7 °F /  0.4 °C 29.91in /  1012.8hPa NNE 5.0mph /  8km/h 10.0mph /  16.1km/h 84% 0.18in /  4.6mm
18:49 37.1 °F /  2.8 °C 32.7 °F /  0.4 °C 29.91in /  1012.8hPa NNE 4.0mph /  6.4km/h 10.0mph /  16.1km/h 84% 0.18in /  4.6mm
18:54 37.1 °F /  2.8 °C 33.0 °F /  0.6 °C 29.90in /  1012.4hPa NE 3.0mph /  4.8km/h 9.0mph /  14.5km/h 85% 0.18in /  4.6mm
18:59 37.1 °F /  2.8 °C 33.0 °F /  0.6 °C 29.91in /  1012.8hPa North 1.0mph /  1.6km/h 9.0mph /  14.5km/h 85% 0.18in /  4.6mm
19:04 37.0 °F /  2.8 °C 32.9 °F /  0.5 °C 29.91in /  1012.8hPa NE 1.0mph /  1.6km/h 9.0mph /  14.5km/h 85% 0.18in /  4.6mm
19:09 37.0 °F /  2.8 °C 32.9 °F /  0.5 °C 29.91in /  1012.8hPa NE 2.0mph /  3.2km/h 9.0mph /  14.5km/h 85% 0.18in /  4.6mm
19:14 36.9 °F /  2.7 °C 32.8 °F /  0.4 °C 29.91in /  1012.8hPa NE 3.0mph /  4.8km/h 9.0mph /  14.5km/h 85% 0.18in /  4.6mm
19:19 36.8 °F /  2.7 °C 33.0 °F /  0.6 °C 29.91in /  1012.8hPa NE 1.0mph /  1.6km/h 8.0mph /  12.9km/h 86% 0.18in /  4.6mm
19:24 36.8 °F /  2.7 °C 33.0 °F /  0.6 °C 29.91in /  1012.8hPa NNE 2.0mph /  3.2km/h 8.0mph /  12.9km/h 86% 0.18in /  4.6mm
19:29 36.6 °F /  2.6 °C 32.8 °F /  0.4 °C 29.91in /  1012.8hPa NNE 4.0mph /  6.4km/h 13.0mph /  20.9km/h 86% 0.18in /  4.6mm
19:34 36.5 °F /  2.5 °C 33.0 °F /  0.6 °C 29.90in /  1012.4hPa NNE 2.0mph /  3.2km/h 13.0mph /  20.9km/h 87% 0.18in /  4.6mm
19:39 36.5 °F /  2.5 °C 33.0 °F /  0.6 °C 29.91in /  1012.8hPa NNE 4.0mph /  6.4km/h 14.0mph /  22.5km/h 87% 0.19in /  4.8mm
19:45 36.4 °F /  2.4 °C 32.9 °F /  0.5 °C 29.90in /  1012.4hPa NNE 3.0mph /  4.8km/h 14.0mph /  22.5km/h 87% 0.19in /  4.8mm
19:59 36.1 °F /  2.3 °C 32.9 °F /  0.5 °C 29.90in /  1012.4hPa NNE 2.0mph /  3.2km/h 6.0mph /  9.7km/h 88% 0.20in /  5.1mm
20:04 36.1 °F /  2.3 °C 32.9 °F /  0.5 °C 29.90in /  1012.4hPa NNE 3.0mph /  4.8km/h 8.0mph /  12.9km/h 88% 0.20in /  5.1mm
20:09 36.0 °F /  2.2 °C 32.8 °F /  0.4 °C 29.90in /  1012.4hPa NNE 5.0mph /  8km/h 12.0mph /  19.3km/h 88% 0.20in /  5.1mm
20:14 36.0 °F /  2.2 °C 33.1 °F /  0.6 °C 29.90in /  1012.4hPa NNE 2.0mph /  3.2km/h 12.0mph /  19.3km/h 89% 0.20in /  5.1mm
20:19 36.0 °F /  2.2 °C 33.1 °F /  0.6 °C 29.90in /  1012.4hPa NNE 3.0mph /  4.8km/h 10.0mph /  16.1km/h 89% 0.21in /  5.3mm
20:29 35.9 °F /  2.2 °C 33.0 °F /  0.6 °C 29.90in /  1012.4hPa NNE 1.0mph /  1.6km/h 10.0mph /  16.1km/h 89% 0.22in /  5.6mm
20:34 35.9 °F /  2.2 °C 33.0 °F /  0.6 °C 29.90in /  1012.4hPa North 2.0mph /  3.2km/h 6.0mph /  9.7km/h 89% 0.22in /  5.6mm
20:39 35.9 °F /  2.2 °C 33.0 °F /  0.6 °C 29.90in /  1012.4hPa NNE 1.0mph /  1.6km/h 8.0mph /  12.9km/h 89% 0.22in /  5.6mm
20:44 35.9 °F /  2.2 °C 33.3 °F /  0.7 °C 29.90in /  1012.4hPa NNE 1.0mph /  1.6km/h 8.0mph /  12.9km/h 90% 0.22in /  5.6mm
20:49 35.9 °F /  2.2 °C 33.3 °F /  0.7 °C 29.90in /  1012.4hPa NNE 1.0mph /  1.6km/h 8.0mph /  12.9km/h 90% 0.22in /  5.6mm
20:54 35.9 °F /  2.2 °C 33.3 °F /  0.7 °C 29.89in /  1012.1hPa NNE 1.0mph /  1.6km/h 10.0mph /  16.1km/h 90% 0.22in /  5.6mm
20:59 35.9 °F /  2.2 °C 33.3 °F /  0.7 °C 29.89in /  1012.1hPa NNE 3.0mph /  4.8km/h 10.0mph /  16.1km/h 90% 0.23in /  5.8mm
21:04 35.9 °F /  2.2 °C 33.3 °F /  0.7 °C 29.89in /  1012.1hPa NNE 2.0mph /  3.2km/h 8.0mph /  12.9km/h 90% 0.23in /  5.8mm
21:09 35.9 °F /  2.2 °C 33.3 °F /  0.7 °C 29.89in /  1012.1hPa NE 1.0mph /  1.6km/h 7.0mph /  11.3km/h 90% 0.23in /  5.8mm
21:14 35.9 °F /  2.2 °C 33.3 °F /  0.7 °C 29.89in /  1012.1hPa NNE 1.0mph /  1.6km/h 6.0mph /  9.7km/h 90% 0.24in /  6.1mm
21:19 35.9 °F /  2.2 °C 33.3 °F /  0.7 °C 29.89in /  1012.1hPa NNE 3.0mph /  4.8km/h 8.0mph /  12.9km/h 90% 0.24in /  6.1mm
21:24 35.9 °F /  2.2 °C 33.5 °F /  0.8 °C 29.89in /  1012.1hPa NNE 1.0mph /  1.6km/h 9.0mph /  14.5km/h 91% 0.24in /  6.1mm
21:29 35.9 °F /  2.2 °C 33.5 °F /  0.8 °C 29.89in /  1012.1hPa NE 2.0mph /  3.2km/h 9.0mph /  14.5km/h 91% 0.24in /  6.1mm
21:34 35.9 °F /  2.2 °C 33.5 °F /  0.8 °C 29.89in /  1012.1hPa NNE 3.0mph /  4.8km/h 8.0mph /  12.9km/h 91% 0.24in /  6.1mm
21:39 35.9 °F /  2.2 °C 33.5 °F /  0.8 °C 29.88in /  1011.7hPa Calm   8.0mph /  12.9km/h 91% 0.25in /  6.4mm
21:45 36.0 °F /  2.2 °C 33.6 °F /  0.9 °C 29.88in /  1011.7hPa NNE 2.0mph /  3.2km/h 7.0mph /  11.3km/h 91% 0.25in /  6.4mm
21:54 36.0 °F /  2.2 °C 33.6 °F /  0.9 °C 29.87in /  1011.4hPa North 2.0mph /  3.2km/h 9.0mph /  14.5km/h 91% 0.26in /  6.6mm
21:59 35.9 °F /  2.2 °C 33.5 °F /  0.8 °C 29.87in /  1011.4hPa NNE 2.0mph /  3.2km/h 9.0mph /  14.5km/h 91% 0.27in /  6.9mm
22:04 35.9 °F /  2.2 °C 33.5 °F /  0.8 °C 29.87in /  1011.4hPa NNE 3.0mph /  4.8km/h 8.0mph /  12.9km/h 91% 0.27in /  6.9mm
22:09 36.0 °F /  2.2 °C 33.6 °F /  0.9 °C 29.87in /  1011.4hPa NNE 2.0mph /  3.2km/h 7.0mph /  11.3km/h 91% 0.28in /  7.1mm
22:14 36.0 °F /  2.2 °C 33.9 °F /  1.1 °C 29.86in /  1011.1hPa NNE 2.0mph /  3.2km/h 7.0mph /  11.3km/h 92% 0.28in /  7.1mm
22:19 35.9 °F /  2.2 °C 33.8 °F /  1 °C 29.85in /  1010.7hPa NE 3.0mph /  4.8km/h 9.0mph /  14.5km/h 92% 0.28in /  7.1mm
22:24 35.9 °F /  2.2 °C 33.8 °F /  1 °C 29.85in /  1010.7hPa NNE 2.0mph /  3.2km/h 9.0mph /  14.5km/h 92% 0.28in /  7.1mm
22:29 35.9 °F /  2.2 °C 33.8 °F /  1 °C 29.84in /  1010.4hPa NNE 3.0mph /  4.8km/h 11.0mph /  17.7km/h 92% 0.28in /  7.1mm
22:34 35.9 °F /  2.2 °C 33.8 °F /  1 °C 29.84in /  1010.4hPa North 1.0mph /  1.6km/h 11.0mph /  17.7km/h 92% 0.28in /  7.1mm
22:39 35.9 °F /  2.2 °C 33.8 °F /  1 °C 29.84in /  1010.4hPa NNE 2.0mph /  3.2km/h 10.0mph /  16.1km/h 92% 0.29in /  7.4mm
22:49 35.8 °F /  2.1 °C 33.7 °F /  0.9 °C 29.83in /  1010hPa NNE 2.0mph /  3.2km/h 10.0mph /  16.1km/h 92% 0.29in /  7.4mm
22:54 35.8 °F /  2.1 °C 33.7 °F /  0.9 °C 29.82in /  1009.7hPa NNE 5.0mph /  8km/h 15.0mph /  24.1km/h 92% 0.30in /  7.6mm
22:59 35.8 °F /  2.1 °C 33.7 °F /  0.9 °C 29.82in /  1009.7hPa NNE 5.0mph /  8km/h 15.0mph /  24.1km/h 92% 0.30in /  7.6mm
23:04 35.8 °F /  2.1 °C 33.7 °F /  0.9 °C 29.82in /  1009.7hPa NNE 3.0mph /  4.8km/h 13.0mph /  20.9km/h 92% 0.30in /  7.6mm
23:09 35.8 °F /  2.1 °C 33.7 °F /  0.9 °C 29.82in /  1009.7hPa NNE 2.0mph /  3.2km/h 13.0mph /  20.9km/h 92% 0.31in /  7.9mm
23:14 35.8 °F /  2.1 °C 33.7 °F /  0.9 °C 29.81in /  1009.4hPa NNE 4.0mph /  6.4km/h 12.0mph /  19.3km/h 92% 0.31in /  7.9mm
23:19 35.8 °F /  2.1 °C 33.7 °F /  0.9 °C 29.81in /  1009.4hPa NNE 3.0mph /  4.8km/h 13.0mph /  20.9km/h 92% 0.32in /  8.1mm
23:24 35.7 °F /  2.1 °C 33.9 °F /  1.1 °C 29.80in /  1009hPa NNE 2.0mph /  3.2km/h 13.0mph /  20.9km/h 93% 0.32in /  8.1mm
23:29 35.7 °F /  2.1 °C 33.9 °F /  1.1 °C 29.80in /  1009hPa NNE 3.0mph /  4.8km/h 13.0mph /  20.9km/h 93% 0.32in /  8.1mm
23:34 35.7 °F /  2.1 °C 33.9 °F /  1.1 °C 29.80in /  1009hPa North 2.0mph /  3.2km/h 8.0mph /  12.9km/h 93% 0.33in /  8.4mm
23:39 35.7 °F /  2.1 °C 33.9 °F /  1.1 °C 29.79in /  1008.7hPa NNE 4.0mph /  6.4km/h 14.0mph /  22.5km/h 93% 0.33in /  8.4mm
23:44 35.7 °F /  2.1 °C 33.9 °F /  1.1 °C 29.79in /  1008.7hPa NNE 5.0mph /  8km/h 14.0mph /  22.5km/h 93% 0.34in /  8.6mm
23:49 35.7 °F /  2.1 °C 33.9 °F /  1.1 °C 29.78in /  1008.4hPa NNE 3.0mph /  4.8km/h 14.0mph /  22.5km/h 93% 0.34in /  8.6mm
23:54 35.6 °F /  2 °C 33.8 °F /  1 °C 29.78in /  1008.4hPa NNE 3.0mph /  4.8km/h 11.0mph /  17.7km/h 93% 0.34in /  8.6mm
23:59 35.6 °F /  2 °C 33.8 °F /  1 °C 29.77in /  1008hPa NE 1.0mph /  1.6km/h 9.0mph /  14.5km/h 93% 0.35in /  8.9mm
Westford Weather
Compliments of Weather Underground

 
 
Current Radar Loop:

Copyright © WestfordWeather.net 2007-2014. All rights reserved.